YM Unanimity — BLHL — position and weather

sailwx.info

Track history (hours):
 
Tides and Currents Weather Stations Pressure Air Temp Water Temp Dewpoint Dewpoint Depression Visibility Wind Speed Wind Dir Waves Ship Positions

YM Unanimity

Last reported at 2018-Jun-19 16:46 UTC. Time now 2018-Jun-23 02:46 UTC.
Position N 38°18' W 126°02'.

Length 333 m; draft 12.8 m.

Type: Ship (hazmat cat A). MMSI: 416466000.

Date/timePositionNaut miles runAvg speedWind from/ knotsBaromVisibWave heightAir tempDewpointWater temp
2018-Jun-19 16:46N 38°18' W 126°02'416.9
2018-Jun-19 16:30N 38°18' W 125°56'1117.5
2018-Jun-19 15:51N 38°17' W 125°42'3217.8
2018-Jun-19 14:05N 38°15' W 125°02'516.4
2018-Jun-19 13:46N 38°15' W 124°55'416.3
2018-Jun-19 13:30N 38°15' W 124°50'815.9
2018-Jun-19 13:00N 38°14' W 124°40'1116.1
2018-Jun-19 12:18N 38°13' W 124°25'516.1
2018-Jun-19 12:00N 38°13' W 124°19'816.2
2018-Jun-19 11:30N 38°12' W 124°09'816.1
2018-Jun-19 11:01N 38°12' W 123°59'816.0
2018-Jun-19 10:30N 38°11' W 123°49'816.3
2018-Jun-19 10:00N 38°11' W 123°38'815.9
2018-Jun-19 09:30N 38°11' W 123°28'713.2
2018-Jun-19 09:00N 38°09' W 123°20'5 9.1
2018-Jun-19 08:30N 38°06' W 123°16'5 9.3
2018-Jun-19 08:00N 38°02' W 123°13'5 9.3
2018-Jun-19 07:30N 37°59' W 123°09'5 9.6
2018-Jun-19 07:00N 37°56' W 123°03'5 9.5
2018-Jun-19 06:31N 37°54' W 122°58'5 9.4
2018-Jun-19 06:00N 37°51' W 122°53'5 9.4
2018-Jun-19 05:31N 37°49' W 122°48'5 9.2
2018-Jun-19 05:00N 37°47' W 122°43'4 8.8
2018-Jun-19 04:30N 37°46' W 122°38'917.6
2018-Jun-19 04:00N 37°50' W 122°28'611.9
2018-Jun-19 03:30N 37°48' W 122°20'2 4.4
2018-Jun-19 03:00N 37°48' W 122°18'0 0.3
2018-Jun-19 02:30N 37°48' W 122°18'1 1.1
2018-Jun-19 01:59N 37°48' W 122°19'0 0.0
2018-Jun-19 01:29N 37°48' W 122°19'0 0.0
2018-Jun-19 00:59N 37°48' W 122°19'0 0.0
2018-Jun-19 00:29N 37°48' W 122°19'0 0.0
2018-Jun-18 23:59N 37°48' W 122°19'0 0.0
2018-Jun-18 23:29N 37°48' W 122°19'0 0.0
2018-Jun-18 22:59N 37°48' W 122°19'0 0.0
2018-Jun-18 22:29N 37°48' W 122°19'0 0.0
2018-Jun-18 21:59N 37°48' W 122°19'0 0.0
2018-Jun-18 21:29N 37°48' W 122°19'0 0.0
2018-Jun-18 20:59N 37°48' W 122°19'0 0.0
2018-Jun-18 20:29N 37°48' W 122°19'0 0.0
2018-Jun-18 19:59N 37°48' W 122°19'0 0.0
2018-Jun-18 19:29N 37°48' W 122°19'0 0.0
2018-Jun-18 18:59N 37°48' W 122°19'0 0.0
2018-Jun-18 18:29N 37°48' W 122°19'0 0.0
2018-Jun-18 17:59N 37°48' W 122°19'0 0.0
2018-Jun-18 17:29N 37°48' W 122°19'0 0.0
2018-Jun-18 16:59N 37°48' W 122°19'0 0.0
2018-Jun-18 16:29N 37°48' W 122°19'0 0.0
2018-Jun-18 15:59N 37°48' W 122°19'0 0.0
2018-Jun-18 15:29N 37°48' W 122°19'0 0.0
2018-Jun-18 14:59N 37°48' W 122°19'0 0.0
2018-Jun-18 14:29N 37°48' W 122°19'0 0.0
2018-Jun-18 13:59N 37°48' W 122°19'0 0.0
2018-Jun-18 13:29N 37°48' W 122°19'0 0.0
2018-Jun-18 12:59N 37°48' W 122°19'0 0.0
2018-Jun-18 12:29N 37°48' W 122°19'0 0.0
2018-Jun-18 11:59N 37°48' W 122°19'0 0.0
2018-Jun-18 11:29N 37°48' W 122°19'0 0.0
2018-Jun-18 10:59N 37°48' W 122°19'0 0.0
2018-Jun-18 10:29N 37°48' W 122°19'0 0.0
2018-Jun-18 09:59N 37°48' W 122°19'0 0.0
2018-Jun-18 09:29N 37°48' W 122°19'0 0.0
2018-Jun-18 08:59N 37°48' W 122°19'0 0.0
2018-Jun-18 08:29N 37°48' W 122°19'0 0.0
2018-Jun-18 07:59N 37°48' W 122°19'0 0.0
2018-Jun-18 07:29N 37°48' W 122°19'0 0.0
2018-Jun-18 06:59N 37°48' W 122°19'0 0.0
2018-Jun-18 06:29N 37°48' W 122°19'0 0.0
2018-Jun-18 05:59N 37°48' W 122°19'0 0.0
2018-Jun-18 05:29N 37°48' W 122°19'0 0.0
2018-Jun-18 04:59N 37°48' W 122°19'0 0.0
2018-Jun-18 04:29N 37°48' W 122°19'0 0.0
2018-Jun-18 03:59N 37°48' W 122°19'0 0.0
2018-Jun-18 03:29N 37°48' W 122°19'0 0.0
2018-Jun-18 02:59N 37°48' W 122°19'0 0.0
2018-Jun-18 02:29N 37°48' W 122°19'0 0.0
2018-Jun-18 01:59N 37°48' W 122°19'0 0.0
2018-Jun-18 01:29N 37°48' W 122°19'0 0.0
2018-Jun-18 00:59N 37°48' W 122°19'0 0.0
2018-Jun-18 00:29N 37°48' W 122°19'0 0.0
2018-Jun-17 23:59N 37°48' W 122°19'0 0.0
2018-Jun-17 23:29N 37°48' W 122°19'0 0.0
2018-Jun-17 22:59N 37°48' W 122°19'0 0.0
2018-Jun-17 22:29N 37°48' W 122°19'0 0.0
2018-Jun-17 21:59N 37°48' W 122°19'0 0.0
2018-Jun-17 21:29N 37°48' W 122°19'0 0.0
2018-Jun-17 20:59N 37°48' W 122°19'0 0.0
2018-Jun-17 20:29N 37°48' W 122°19'0 0.0
2018-Jun-17 19:59N 37°48' W 122°19'0 0.0
2018-Jun-17 19:29N 37°48' W 122°19'0 0.0
2018-Jun-17 18:59N 37°48' W 122°19'0 0.0
2018-Jun-17 18:29N 37°48' W 122°19'0 0.0
2018-Jun-17 17:59N 37°48' W 122°19'0 0.0
2018-Jun-17 17:29N 37°48' W 122°19'0 0.0
2018-Jun-17 16:59N 37°48' W 122°19'0 0.0
2018-Jun-17 16:29N 37°48' W 122°19'0 0.0
2018-Jun-17 15:59N 37°48' W 122°19'0 0.0
2018-Jun-17 15:29N 37°48' W 122°19'0 0.0
2018-Jun-17 14:59N 37°48' W 122°19'0 0.0
2018-Jun-17 14:29N 37°48' W 122°19'0 0.0
2018-Jun-17 13:59N 37°48' W 122°19'0 0.0
2018-Jun-17 13:29N 37°48' W 122°19'0 0.0
2018-Jun-17 12:59N 37°48' W 122°19'0 0.0
2018-Jun-17 12:29N 37°48' W 122°19'0 0.0
2018-Jun-17 11:59N 37°48' W 122°19'0 0.0
2018-Jun-17 11:29N 37°48' W 122°19'0 0.0
2018-Jun-17 10:59N 37°48' W 122°19'0 0.0
2018-Jun-17 10:29N 37°48' W 122°19'0 0.0
2018-Jun-17 09:59N 37°48' W 122°19'0 0.0
2018-Jun-17 09:29N 37°48' W 122°19'0 0.0
2018-Jun-17 08:59N 37°48' W 122°19'0 0.0
2018-Jun-17 08:29N 37°48' W 122°19'0 0.0
2018-Jun-17 07:59N 37°48' W 122°19'0 0.0
2018-Jun-17 07:29N 37°48' W 122°19'0 0.0
2018-Jun-17 06:59N 37°48' W 122°19'0 0.0
2018-Jun-17 06:29N 37°48' W 122°19'0 0.0
2018-Jun-17 05:59N 37°48' W 122°19'0 0.0
2018-Jun-17 05:29N 37°48' W 122°19'0 0.0
2018-Jun-17 04:59N 37°48' W 122°19'0 0.0
2018-Jun-17 04:29N 37°48' W 122°19'0 0.0
2018-Jun-17 03:59N 37°48' W 122°19'0 0.2
2018-Jun-17 03:31N 37°48' W 122°19'2 4.4
2018-Jun-17 03:00N 37°48' W 122°21'5 9.2
2018-Jun-17 02:30N 37°49' W 122°27'4 8.7
2018-Jun-17 02:00N 37°47' W 122°32'612.4
2018-Jun-17 01:30N 37°45' W 122°39'4 8.6
2018-Jun-17 00:59N 37°41' W 122°40'4 9.1
2018-Jun-17 00:30N 37°36' W 122°40'4 8.9
2018-Jun-17 00:00N 37°32' W 122°39'5 9.3
2018-Jun-16 23:30N 37°27' W 122°40'5 9.3
2018-Jun-16 23:00N 37°22' W 122°39'5 9.3
2018-Jun-16 22:30N 37°18' W 122°39'4 7.2
2018-Jun-16 22:00N 37°15' W 122°37'0 0.9
2018-Jun-16 21:30N 37°14' W 122°37'0 0.9
2018-Jun-16 21:00N 37°14' W 122°38'0 0.7
2018-Jun-16 20:30N 37°14' W 122°38'0 0.5
2018-Jun-16 20:00N 37°14' W 122°38'0 0.7
2018-Jun-16 19:30N 37°13' W 122°38'3 5.2
2018-Jun-16 19:00N 37°11' W 122°36'4 8.4
2018-Jun-16 18:30N 37°07' W 122°35'4 8.3
2018-Jun-16 18:00N 37°03' W 122°33'4 8.3
2018-Jun-16 17:30N 36°59' W 122°31'6 8.4
2018-Jun-16 16:51N 36°54' W 122°29'1210.4
2018-Jun-16 15:43N 36°43' W 122°24'210.6
2018-Jun-16 15:30N 36°41' W 122°23'510.7
2018-Jun-16 15:00N 36°36' W 122°20'510.8
2018-Jun-16 14:30N 36°31' W 122°17'510.3
2018-Jun-16 14:00N 36°27' W 122°14'510.6
2018-Jun-16 13:30N 36°22' W 122°10'510.8
2018-Jun-16 13:00N 36°17' W 122°07'510.6
2018-Jun-16 12:30N 36°13' W 122°04'510.4
2018-Jun-16 12:00N 36°08' W 122°01'510.3
2018-Jun-16 11:30N 36°04' W 121°58'510.6
2018-Jun-16 11:00N 35°59' W 121°55'510.8
2018-Jun-16 10:30N 35°54' W 121°51'510.9
2018-Jun-16 10:00N 35°50' W 121°48'510.7
2018-Jun-16 09:30N 35°45' W 121°45'510.7
2018-Jun-16 09:00N 35°40' W 121°42'5 9.6
2018-Jun-16 08:30N 35°36' W 121°39'510.4
2018-Jun-16 08:00N 35°31' W 121°36'511.0
2018-Jun-16 07:30N 35°27' W 121°33'710.4
2018-Jun-16 06:50N 35°20' W 121°28'310.5
2018-Jun-16 06:30N 35°17' W 121°26'610.5
2018-Jun-16 05:58N 35°12' W 121°23'510.7
2018-Jun-16 05:30N 35°08' W 121°20'510.3
2018-Jun-16 05:00N 35°04' W 121°17'510.4
2018-Jun-16 04:29N 34°59' W 121°14'510.3
2018-Jun-16 04:00N 34°55' W 121°11'510.4
2018-Jun-16 03:29N 34°50' W 121°08'610.8
2018-Jun-16 02:56N 34°45' W 121°04'510.9
2018-Jun-16 02:27N 34°40' W 121°01'510.0
2018-Jun-16 01:59N 34°36' W 120°58'5 9.8
2018-Jun-16 01:29N 34°32' W 120°55'6 9.9
2018-Jun-16 00:55N 34°27' W 120°52'5 8.9
2018-Jun-16 00:22N 34°25' W 120°47'4 9.6
2018-Jun-15 23:58N 34°24' W 120°42'5 9.7
2018-Jun-15 23:30N 34°23' W 120°37'5 9.9
2018-Jun-15 22:58N 34°21' W 120°31'610.6
2018-Jun-15 22:26N 34°20' W 120°24'510.8
2018-Jun-15 21:57N 34°19' W 120°18'810.5
2018-Jun-15 21:12N 34°16' W 120°09'410.3
2018-Jun-15 20:50N 34°15' W 120°04'410.8
2018-Jun-15 20:25N 34°14' W 119°59'511.0
2018-Jun-15 19:58N 34°13' W 119°53'916.4
2018-Jun-15 19:25N 34°10' W 119°43'819.2
2018-Jun-15 19:00N 34°08' W 119°34'1219.7
2018-Jun-15 18:24N 34°05' W 119°20'819.4
2018-Jun-15 17:59N 34°02' W 119°11'917.8
2018-Jun-15 17:28N 33°58' W 119°01'511.4
2018-Jun-15 16:59N 33°55' W 118°55'611.5
2018-Jun-15 16:30N 33°52' W 118°50'611.6
2018-Jun-15 15:59N 33°49' W 118°43'611.7
2018-Jun-15 15:30N 33°46' W 118°37'611.8
2018-Jun-15 15:00N 33°43' W 118°31'611.8
2018-Jun-15 14:28N 33°40' W 118°25'511.4
2018-Jun-15 14:00N 33°38' W 118°19'5 9.7
2018-Jun-15 13:30N 33°42' W 118°15'3 5.9
2018-Jun-15 13:01N 33°44' W 118°17'1 1.7
2018-Jun-15 12:30N 33°45' W 118°17'0 0.1
2018-Jun-15 11:58N 33°45' W 118°17'0 0.0
2018-Jun-15 11:30N 33°45' W 118°17'0 0.0
2018-Jun-15 11:00N 33°45' W 118°17'0 0.0
2018-Jun-15 10:30N 33°45' W 118°17'0 0.0
2018-Jun-15 10:00N 33°45' W 118°17'0 0.0
2018-Jun-15 09:30N 33°45' W 118°17'0 0.0
2018-Jun-15 09:00N 33°45' W 118°17'0 0.0
2018-Jun-15 08:30N 33°45' W 118°17'0 0.0
2018-Jun-15 08:00N 33°45' W 118°17'0 0.0
2018-Jun-15 07:30N 33°45' W 118°17'0 0.0
2018-Jun-15 07:00N 33°45' W 118°17'0 0.0
2018-Jun-15 06:30N 33°45' W 118°17'0 0.0
2018-Jun-15 06:00N 33°45' W 118°17'0 0.0
2018-Jun-15 05:30N 33°45' W 118°17'0 0.0
2018-Jun-15 04:57N 33°45' W 118°17'0 0.0
2018-Jun-15 04:30N 33°45' W 118°17'0 0.0
2018-Jun-15 04:00N 33°45' W 118°17'0 0.0
2018-Jun-15 03:30N 33°45' W 118°17'0 0.0
2018-Jun-15 03:00N 33°45' W 118°17'0 0.0
2018-Jun-15 02:30N 33°45' W 118°17'0 0.0
2018-Jun-15 01:57N 33°45' W 118°17'0 0.0
2018-Jun-15 01:30N 33°45' W 118°17'0 0.0
2018-Jun-15 01:00N 33°45' W 118°17'0 0.0
2018-Jun-15 00:30N 33°45' W 118°17'0 0.0
2018-Jun-15 00:00N 33°45' W 118°17'0 0.0
2018-Jun-14 23:30N 33°45' W 118°17'0 0.0
2018-Jun-14 23:00N 33°45' W 118°17'0 0.0
2018-Jun-14 22:30N 33°45' W 118°17'0 0.0
2018-Jun-14 22:00N 33°45' W 118°17'0 0.0
2018-Jun-14 21:30N 33°45' W 118°17'0 0.0
2018-Jun-14 21:00N 33°45' W 118°17'0 0.0
2018-Jun-14 20:27N 33°45' W 118°17'0 0.0
2018-Jun-14 20:00N 33°45' W 118°17'0 0.0
2018-Jun-14 19:30N 33°45' W 118°17'0 0.0
2018-Jun-14 19:00N 33°45' W 118°17'0 0.0
2018-Jun-14 18:30N 33°45' W 118°17'0 0.0
2018-Jun-14 18:00N 33°45' W 118°17'0 0.0
2018-Jun-14 17:30N 33°45' W 118°17'0 0.0
2018-Jun-14 17:00N 33°45' W 118°17'0 0.0
2018-Jun-14 16:30N 33°45' W 118°17'0 0.0
2018-Jun-14 16:00N 33°45' W 118°17'0 0.0
2018-Jun-14 15:30N 33°45' W 118°17'0 0.0
2018-Jun-14 15:00N 33°45' W 118°17'0 0.0
2018-Jun-14 14:30N 33°45' W 118°17'0 0.1
2018-Jun-14 14:00N 33°45' W 118°17'0 0.1
2018-Jun-14 13:30N 33°45' W 118°17'0 0.0
2018-Jun-14 13:00N 33°45' W 118°17'0 0.0
2018-Jun-14 12:30N 33°45' W 118°17'0 0.0
2018-Jun-14 12:00N 33°45' W 118°17'0 0.0
2018-Jun-14 11:30N 33°45' W 118°17'0 0.0
2018-Jun-14 11:00N 33°45' W 118°17'0 0.1
2018-Jun-14 10:30N 33°45' W 118°17'0 0.1
2018-Jun-14 10:00N 33°45' W 118°17'0 0.0
2018-Jun-14 09:30N 33°45' W 118°17'0 0.1
2018-Jun-14 09:00N 33°45' W 118°17'0 0.1
2018-Jun-14 08:30N 33°45' W 118°17'0 0.0
2018-Jun-14 07:57N 33°45' W 118°17'0 0.0
2018-Jun-14 07:30N 33°45' W 118°17'0 0.1
2018-Jun-14 07:00N 33°45' W 118°17'0 0.1
2018-Jun-14 06:30N 33°45' W 118°17'0 0.0
2018-Jun-14 06:00N 33°45' W 118°17'0 0.0
2018-Jun-14 05:30N 33°45' W 118°17'0 0.1
2018-Jun-14 05:00N 33°45' W 118°17'0 0.1
2018-Jun-14 04:30N 33°45' W 118°17'0 0.0
2018-Jun-14 04:00N 33°45' W 118°17'0 0.1
2018-Jun-14 03:30N 33°45' W 118°17'0 0.1
2018-Jun-14 03:00N 33°45' W 118°17'0 0.0
2018-Jun-14 02:30N 33°45' W 118°17'0 0.0
2018-Jun-14 02:00N 33°45' W 118°17'0 0.1
2018-Jun-14 01:30N 33°45' W 118°17'0 0.0
2018-Jun-14 01:00N 33°45' W 118°17'0 0.1
2018-Jun-14 00:30N 33°45' W 118°17'0 0.0
2018-Jun-14 00:00N 33°45' W 118°17'0 0.0
2018-Jun-13 23:30N 33°45' W 118°17'0 0.0
2018-Jun-13 23:00N 33°45' W 118°17'0 0.0
2018-Jun-13 22:30N 33°45' W 118°17'0 0.0
2018-Jun-13 22:00N 33°45' W 118°17'0 0.0
2018-Jun-13 21:30N 33°45' W 118°17'0 0.0
2018-Jun-13 21:00N 33°45' W 118°17'0 0.0
2018-Jun-13 20:30N 33°45' W 118°17'0 0.0
2018-Jun-13 19:57N 33°45' W 118°17'0 0.0
2018-Jun-13 19:30N 33°45' W 118°17'0 0.0
2018-Jun-13 19:00N 33°45' W 118°17'0 0.0
2018-Jun-13 18:30N 33°45' W 118°17'0 0.0
2018-Jun-13 18:00N 33°45' W 118°17'0 0.0
2018-Jun-13 17:30N 33°45' W 118°17'0 0.0
2018-Jun-13 17:00N 33°45' W 118°17'0 0.0
2018-Jun-13 16:30N 33°45' W 118°17'0 0.0
2018-Jun-13 16:00N 33°45' W 118°17'0 0.0
2018-Jun-13 15:30N 33°45' W 118°17'0 0.1
2018-Jun-13 15:00N 33°45' W 118°17'0 0.1
2018-Jun-13 14:30N 33°45' W 118°17'0 0.0
2018-Jun-13 14:00N 33°45' W 118°17'0 0.0
2018-Jun-13 13:30N 33°45' W 118°17'0 0.1
2018-Jun-13 13:00N 33°45' W 118°17'0 0.0
2018-Jun-13 12:27N 33°45' W 118°17'0 0.1
2018-Jun-13 12:00N 33°45' W 118°17'0 0.0
2018-Jun-13 11:30N 33°45' W 118°17'0 0.0
2018-Jun-13 11:00N 33°45' W 118°17'0 0.0
2018-Jun-13 10:30N 33°45' W 118°17'0 0.1
2018-Jun-13 10:00N 33°45' W 118°17'0 0.1
2018-Jun-13 09:30N 33°45' W 118°17'0 0.0
2018-Jun-13 09:00N 33°45' W 118°17'0 0.0
2018-Jun-13 08:30N 33°45' W 118°17'0 0.0
2018-Jun-13 08:00N 33°45' W 118°17'0 0.0
2018-Jun-13 07:30N 33°45' W 118°17'0 0.0
2018-Jun-13 07:00N 33°45' W 118°17'0 0.0
2018-Jun-13 06:30N 33°45' W 118°17'0 0.0
2018-Jun-13 06:00N 33°45' W 118°17'0 0.0
2018-Jun-13 05:30N 33°45' W 118°17'0 0.0
2018-Jun-13 05:00N 33°45' W 118°17'0 0.0
2018-Jun-13 04:30N 33°45' W 118°17'0 0.0
2018-Jun-13 04:00N 33°45' W 118°17'0 0.0
2018-Jun-13 03:30N 33°45' W 118°17'0 0.0
2018-Jun-13 03:00N 33°45' W 118°17'0 0.0
2018-Jun-13 02:30N 33°45' W 118°17'0 0.0
2018-Jun-13 02:00N 33°45' W 118°17'0 0.1
2018-Jun-13 01:30N 33°45' W 118°17'0 0.1
2018-Jun-13 01:00N 33°45' W 118°17'0 0.1
2018-Jun-13 00:27N 33°45' W 118°17'0 0.1
2018-Jun-13 00:00N 33°45' W 118°17'0 0.1
2018-Jun-12 23:30N 33°45' W 118°17'0 0.0
2018-Jun-12 23:00N 33°45' W 118°17'0 0.1
2018-Jun-12 22:30N 33°45' W 118°17'0 0.0
2018-Jun-12 22:00N 33°45' W 118°17'0 0.0
2018-Jun-12 21:30N 33°45' W 118°17'0 0.0
2018-Jun-12 21:00N 33°45' W 118°17'0 0.0
2018-Jun-12 20:30N 33°45' W 118°17'0 0.0
2018-Jun-12 19:57N 33°45' W 118°17'0 0.0
2018-Jun-12 19:30N 33°45' W 118°17'0 0.0
2018-Jun-12 19:00N 33°45' W 118°17'0 0.0
2018-Jun-12 18:30N 33°45' W 118°17'0 0.0
2018-Jun-12 18:00N 33°45' W 118°17'0 0.0
2018-Jun-12 17:30N 33°45' W 118°17'0 0.0
2018-Jun-12 17:00N 33°45' W 118°17'0 0.0
2018-Jun-12 16:30N 33°45' W 118°17'0 0.0
2018-Jun-12 16:00N 33°45' W 118°17'0 0.0
2018-Jun-12 15:30N 33°45' W 118°17'0 0.1
2018-Jun-12 15:00N 33°45' W 118°17'0 0.1
2018-Jun-12 14:30N 33°45' W 118°17'0 0.0
2018-Jun-12 14:00N 33°45' W 118°17'0 0.0
2018-Jun-12 13:30N 33°45' W 118°17'0 0.0
2018-Jun-12 13:00N 33°45' W 118°17'0 0.1
2018-Jun-12 12:30N 33°45' W 118°17'1 2.7
2018-Jun-12 12:00N 33°44' W 118°16'0 0.9
2018-Jun-12 11:30N 33°43' W 118°16'3 6.8
2018-Jun-12 11:01N 33°41' W 118°14'4 7.3
2018-Jun-12 10:30N 33°37' W 118°16'4 9.1
2018-Jun-12 10:00N 33°36' W 118°21'3 7.0
2018-Jun-12 09:30N 33°36' W 118°25'611.2
2018-Jun-12 09:00N 33°36' W 118°32'611.5
2018-Jun-12 08:30N 33°36' W 118°39'611.5
2018-Jun-12 08:00N 33°37' W 118°45'611.4
2018-Jun-12 07:30N 33°37' W 118°52'611.5
2018-Jun-12 06:59N 33°38' W 118°59'611.2
2018-Jun-12 06:30N 33°38' W 119°06'611.5
2018-Jun-12 05:58N 33°38' W 119°13'611.6
2018-Jun-12 05:28N 33°38' W 119°20'511.4
2018-Jun-12 04:59N 33°38' W 119°27'511.2
2018-Jun-12 04:30N 33°38' W 119°34'611.6
2018-Jun-12 04:00N 33°38' W 119°40'611.6
2018-Jun-12 03:30N 33°38' W 119°48'612.0
2018-Jun-12 03:00N 33°38' W 119°55'611.4
2018-Jun-12 02:30N 33°38' W 120°01'611.4
2018-Jun-12 02:00N 33°38' W 120°08'611.7
2018-Jun-12 01:30N 33°38' W 120°15'611.4
2018-Jun-12 01:00N 33°38' W 120°22'611.2
2018-Jun-12 00:30N 33°38' W 120°29'611.1
2018-Jun-12 00:00N 33°39' W 120°35'611.6
2018-Jun-11 23:30N 33°39' W 120°43'611.5
2018-Jun-11 23:00N 33°39' W 120°49'611.4
2018-Jun-11 22:30N 33°38' W 120°56'510.9
2018-Jun-11 22:00N 33°38' W 121°03'510.7
2018-Jun-11 21:30N 33°39' W 121°09'918.8
2018-Jun-11 21:00N 33°39' W 121°21'918.8
2018-Jun-11 20:30N 33°39' W 121°32'1018.8
2018-Jun-11 20:00N 33°39' W 121°43'918.7
2018-Jun-11 19:30N 33°39' W 121°54'919.0
2018-Jun-11 19:01N 33°39' W 122°06'1018.8
2018-Jun-11 18:30N 33°39' W 122°17'  
Track history (hours):
 
Tides and Currents Weather Stations Pressure Air Temp Water Temp Dewpoint Dewpoint Depression Visibility Wind Speed Wind Dir Waves Ship Positions

YM Unanimity

Last reported at 2018-Jun-19 16:46 UTC. Time now 2018-Jun-23 02:46 UTC.
Position N 38°18' W 126°02'.

Length 333 m; draft 12.8 m.

Type: Ship (hazmat cat A). MMSI: 416466000.

Date/timePositionNaut miles runAvg speedWind from/ knotsBaromVisibWave heightAir tempDewpointWater temp
2018-Jun-19 16:46N 38°18' W 126°02'416.9
2018-Jun-19 16:30N 38°18' W 125°56'1117.5
2018-Jun-19 15:51N 38°17' W 125°42'3217.8
2018-Jun-19 14:05N 38°15' W 125°02'516.4
2018-Jun-19 13:46N 38°15' W 124°55'416.3
2018-Jun-19 13:30N 38°15' W 124°50'815.9
2018-Jun-19 13:00N 38°14' W 124°40'1116.1
2018-Jun-19 12:18N 38°13' W 124°25'516.1
2018-Jun-19 12:00N 38°13' W 124°19'816.2
2018-Jun-19 11:30N 38°12' W 124°09'816.1
2018-Jun-19 11:01N 38°12' W 123°59'816.0
2018-Jun-19 10:30N 38°11' W 123°49'816.3
2018-Jun-19 10:00N 38°11' W 123°38'815.9
2018-Jun-19 09:30N 38°11' W 123°28'713.2
2018-Jun-19 09:00N 38°09' W 123°20'5 9.1
2018-Jun-19 08:30N 38°06' W 123°16'5 9.3
2018-Jun-19 08:00N 38°02' W 123°13'5 9.3
2018-Jun-19 07:30N 37°59' W 123°09'5 9.6
2018-Jun-19 07:00N 37°56' W 123°03'5 9.5
2018-Jun-19 06:31N 37°54' W 122°58'5 9.4
2018-Jun-19 06:00N 37°51' W 122°53'5 9.4
2018-Jun-19 05:31N 37°49' W 122°48'5 9.2
2018-Jun-19 05:00N 37°47' W 122°43'4 8.8
2018-Jun-19 04:30N 37°46' W 122°38'917.6
2018-Jun-19 04:00N 37°50' W 122°28'611.9
2018-Jun-19 03:30N 37°48' W 122°20'2 4.4
2018-Jun-19 03:00N 37°48' W 122°18'0 0.3
2018-Jun-19 02:30N 37°48' W 122°18'1 1.1
2018-Jun-19 01:59N 37°48' W 122°19'0 0.0
2018-Jun-19 01:29N 37°48' W 122°19'0 0.0
2018-Jun-19 00:59N 37°48' W 122°19'0 0.0
2018-Jun-19 00:29N 37°48' W 122°19'0 0.0
2018-Jun-18 23:59N 37°48' W 122°19'0 0.0
2018-Jun-18 23:29N 37°48' W 122°19'0 0.0
2018-Jun-18 22:59N 37°48' W 122°19'0 0.0
2018-Jun-18 22:29N 37°48' W 122°19'0 0.0
2018-Jun-18 21:59N 37°48' W 122°19'0 0.0
2018-Jun-18 21:29N 37°48' W 122°19'0 0.0
2018-Jun-18 20:59N 37°48' W 122°19'0 0.0
2018-Jun-18 20:29N 37°48' W 122°19'0 0.0
2018-Jun-18 19:59N 37°48' W 122°19'0 0.0
2018-Jun-18 19:29N 37°48' W 122°19'0 0.0
2018-Jun-18 18:59N 37°48' W 122°19'0 0.0
2018-Jun-18 18:29N 37°48' W 122°19'0 0.0
2018-Jun-18 17:59N 37°48' W 122°19'0 0.0
2018-Jun-18 17:29N 37°48' W 122°19'0 0.0
2018-Jun-18 16:59N 37°48' W 122°19'0 0.0
2018-Jun-18 16:29N 37°48' W 122°19'0 0.0
2018-Jun-18 15:59N 37°48' W 122°19'0 0.0
2018-Jun-18 15:29N 37°48' W 122°19'0 0.0
2018-Jun-18 14:59N 37°48' W 122°19'0 0.0
2018-Jun-18 14:29N 37°48' W 122°19'0 0.0
2018-Jun-18 13:59N 37°48' W 122°19'0 0.0
2018-Jun-18 13:29N 37°48' W 122°19'0 0.0
2018-Jun-18 12:59N 37°48' W 122°19'0 0.0
2018-Jun-18 12:29N 37°48' W 122°19'0 0.0
2018-Jun-18 11:59N 37°48' W 122°19'0 0.0
2018-Jun-18 11:29N 37°48' W 122°19'0 0.0
2018-Jun-18 10:59N 37°48' W 122°19'0 0.0
2018-Jun-18 10:29N 37°48' W 122°19'0 0.0
2018-Jun-18 09:59N 37°48' W 122°19'0 0.0
2018-Jun-18 09:29N 37°48' W 122°19'0 0.0
2018-Jun-18 08:59N 37°48' W 122°19'0 0.0
2018-Jun-18 08:29N 37°48' W 122°19'0 0.0
2018-Jun-18 07:59N 37°48' W 122°19'0 0.0
2018-Jun-18 07:29N 37°48' W 122°19'0 0.0
2018-Jun-18 06:59N 37°48' W 122°19'0 0.0
2018-Jun-18 06:29N 37°48' W 122°19'0 0.0
2018-Jun-18 05:59N 37°48' W 122°19'0 0.0
2018-Jun-18 05:29N 37°48' W 122°19'0 0.0
2018-Jun-18 04:59N 37°48' W 122°19'0 0.0
2018-Jun-18 04:29N 37°48' W 122°19'0 0.0
2018-Jun-18 03:59N 37°48' W 122°19'0 0.0
2018-Jun-18 03:29N 37°48' W 122°19'0 0.0
2018-Jun-18 02:59N 37°48' W 122°19'0 0.0
2018-Jun-18 02:29N 37°48' W 122°19'0 0.0
2018-Jun-18 01:59N 37°48' W 122°19'0 0.0
2018-Jun-18 01:29N 37°48' W 122°19'0 0.0
2018-Jun-18 00:59N 37°48' W 122°19'0 0.0
2018-Jun-18 00:29N 37°48' W 122°19'0 0.0
2018-Jun-17 23:59N 37°48' W 122°19'0 0.0
2018-Jun-17 23:29N 37°48' W 122°19'0 0.0
2018-Jun-17 22:59N 37°48' W 122°19'0 0.0
2018-Jun-17 22:29N 37°48' W 122°19'0 0.0
2018-Jun-17 21:59N 37°48' W 122°19'0 0.0
2018-Jun-17 21:29N 37°48' W 122°19'0 0.0
2018-Jun-17 20:59N 37°48' W 122°19'0 0.0
2018-Jun-17 20:29N 37°48' W 122°19'0 0.0
2018-Jun-17 19:59N 37°48' W 122°19'0 0.0
2018-Jun-17 19:29N 37°48' W 122°19'0 0.0
2018-Jun-17 18:59N 37°48' W 122°19'0 0.0
2018-Jun-17 18:29N 37°48' W 122°19'0 0.0
2018-Jun-17 17:59N 37°48' W 122°19'0 0.0
2018-Jun-17 17:29N 37°48' W 122°19'0 0.0
2018-Jun-17 16:59N 37°48' W 122°19'0 0.0
2018-Jun-17 16:29N 37°48' W 122°19'0 0.0
2018-Jun-17 15:59N 37°48' W 122°19'0 0.0
2018-Jun-17 15:29N 37°48' W 122°19'0 0.0
2018-Jun-17 14:59N 37°48' W 122°19'0 0.0
2018-Jun-17 14:29N 37°48' W 122°19'0 0.0
2018-Jun-17 13:59N 37°48' W 122°19'0 0.0
2018-Jun-17 13:29N 37°48' W 122°19'0 0.0
2018-Jun-17 12:59N 37°48' W 122°19'0 0.0
2018-Jun-17 12:29N 37°48' W 122°19'0 0.0
2018-Jun-17 11:59N 37°48' W 122°19'0 0.0
2018-Jun-17 11:29N 37°48' W 122°19'0 0.0
2018-Jun-17 10:59N 37°48' W 122°19'0 0.0
2018-Jun-17 10:29N 37°48' W 122°19'0 0.0
2018-Jun-17 09:59N 37°48' W 122°19'0 0.0
2018-Jun-17 09:29N 37°48' W 122°19'0 0.0
2018-Jun-17 08:59N 37°48' W 122°19'0 0.0
2018-Jun-17 08:29N 37°48' W 122°19'0 0.0
2018-Jun-17 07:59N 37°48' W 122°19'0 0.0
2018-Jun-17 07:29N 37°48' W 122°19'0 0.0
2018-Jun-17 06:59N 37°48' W 122°19'0 0.0
2018-Jun-17 06:29N 37°48' W 122°19'0 0.0
2018-Jun-17 05:59N 37°48' W 122°19'0 0.0
2018-Jun-17 05:29N 37°48' W 122°19'0 0.0
2018-Jun-17 04:59N 37°48' W 122°19'0 0.0
2018-Jun-17 04:29N 37°48' W 122°19'0 0.0
2018-Jun-17 03:59N 37°48' W 122°19'0 0.2
2018-Jun-17 03:31N 37°48' W 122°19'2 4.4
2018-Jun-17 03:00N 37°48' W 122°21'5 9.2
2018-Jun-17 02:30N 37°49' W 122°27'4 8.7
2018-Jun-17 02:00N 37°47' W 122°32'612.4
2018-Jun-17 01:30N 37°45' W 122°39'4 8.6
2018-Jun-17 00:59N 37°41' W 122°40'4 9.1
2018-Jun-17 00:30N 37°36' W 122°40'4 8.9
2018-Jun-17 00:00N 37°32' W 122°39'5 9.3
2018-Jun-16 23:30N 37°27' W 122°40'5 9.3
2018-Jun-16 23:00N 37°22' W 122°39'5 9.3
2018-Jun-16 22:30N 37°18' W 122°39'4 7.2
2018-Jun-16 22:00N 37°15' W 122°37'0 0.9
2018-Jun-16 21:30N 37°14' W 122°37'0 0.9
2018-Jun-16 21:00N 37°14' W 122°38'0 0.7
2018-Jun-16 20:30N 37°14' W 122°38'0 0.5
2018-Jun-16 20:00N 37°14' W 122°38'0 0.7
2018-Jun-16 19:30N 37°13' W 122°38'3 5.2
2018-Jun-16 19:00N 37°11' W 122°36'4 8.4
2018-Jun-16 18:30N 37°07' W 122°35'4 8.3
2018-Jun-16 18:00N 37°03' W 122°33'4 8.3
2018-Jun-16 17:30N 36°59' W 122°31'6 8.4
2018-Jun-16 16:51N 36°54' W 122°29'1210.4
2018-Jun-16 15:43N 36°43' W 122°24'210.6
2018-Jun-16 15:30N 36°41' W 122°23'510.7
2018-Jun-16 15:00N 36°36' W 122°20'510.8
2018-Jun-16 14:30N 36°31' W 122°17'510.3
2018-Jun-16 14:00N 36°27' W 122°14'510.6
2018-Jun-16 13:30N 36°22' W 122°10'510.8
2018-Jun-16 13:00N 36°17' W 122°07'510.6
2018-Jun-16 12:30N 36°13' W 122°04'510.4
2018-Jun-16 12:00N 36°08' W 122°01'510.3
2018-Jun-16 11:30N 36°04' W 121°58'510.6
2018-Jun-16 11:00N 35°59' W 121°55'510.8
2018-Jun-16 10:30N 35°54' W 121°51'510.9
2018-Jun-16 10:00N 35°50' W 121°48'510.7
2018-Jun-16 09:30N 35°45' W 121°45'510.7
2018-Jun-16 09:00N 35°40' W 121°42'5 9.6
2018-Jun-16 08:30N 35°36' W 121°39'510.4
2018-Jun-16 08:00N 35°31' W 121°36'511.0
2018-Jun-16 07:30N 35°27' W 121°33'710.4
2018-Jun-16 06:50N 35°20' W 121°28'310.5
2018-Jun-16 06:30N 35°17' W 121°26'610.5
2018-Jun-16 05:58N 35°12' W 121°23'510.7
2018-Jun-16 05:30N 35°08' W 121°20'510.3
2018-Jun-16 05:00N 35°04' W 121°17'510.4
2018-Jun-16 04:29N 34°59' W 121°14'510.3
2018-Jun-16 04:00N 34°55' W 121°11'510.4
2018-Jun-16 03:29N 34°50' W 121°08'610.8
2018-Jun-16 02:56N 34°45' W 121°04'510.9
2018-Jun-16 02:27N 34°40' W 121°01'510.0
2018-Jun-16 01:59N 34°36' W 120°58'5 9.8
2018-Jun-16 01:29N 34°32' W 120°55'6 9.9
2018-Jun-16 00:55N 34°27' W 120°52'5 8.9
2018-Jun-16 00:22N 34°25' W 120°47'4 9.6
2018-Jun-15 23:58N 34°24' W 120°42'5 9.7
2018-Jun-15 23:30N 34°23' W 120°37'5 9.9
2018-Jun-15 22:58N 34°21' W 120°31'610.6
2018-Jun-15 22:26N 34°20' W 120°24'510.8
2018-Jun-15 21:57N 34°19' W 120°18'810.5
2018-Jun-15 21:12N 34°16' W 120°09'410.3
2018-Jun-15 20:50N 34°15' W 120°04'410.8
2018-Jun-15 20:25N 34°14' W 119°59'511.0
2018-Jun-15 19:58N 34°13' W 119°53'916.4
2018-Jun-15 19:25N 34°10' W 119°43'819.2
2018-Jun-15 19:00N 34°08' W 119°34'1219.7
2018-Jun-15 18:24N 34°05' W 119°20'819.4
2018-Jun-15 17:59N 34°02' W 119°11'917.8
2018-Jun-15 17:28N 33°58' W 119°01'511.4
2018-Jun-15 16:59N 33°55' W 118°55'611.5
2018-Jun-15 16:30N 33°52' W 118°50'611.6
2018-Jun-15 15:59N 33°49' W 118°43'611.7
2018-Jun-15 15:30N 33°46' W 118°37'611.8
2018-Jun-15 15:00N 33°43' W 118°31'611.8
2018-Jun-15 14:28N 33°40' W 118°25'511.4
2018-Jun-15 14:00N 33°38' W 118°19'5 9.7
2018-Jun-15 13:30N 33°42' W 118°15'3 5.9
2018-Jun-15 13:01N 33°44' W 118°17'1 1.7
2018-Jun-15 12:30N 33°45' W 118°17'0 0.1
2018-Jun-15 11:58N 33°45' W 118°17'0 0.0
2018-Jun-15 11:30N 33°45' W 118°17'0 0.0
2018-Jun-15 11:00N 33°45' W 118°17'0 0.0
2018-Jun-15 10:30N 33°45' W 118°17'0 0.0
2018-Jun-15 10:00N 33°45' W 118°17'0 0.0
2018-Jun-15 09:30N 33°45' W 118°17'0 0.0
2018-Jun-15 09:00N 33°45' W 118°17'0 0.0
2018-Jun-15 08:30N 33°45' W 118°17'0 0.0
2018-Jun-15 08:00N 33°45' W 118°17'0 0.0
2018-Jun-15 07:30N 33°45' W 118°17'0 0.0
2018-Jun-15 07:00N 33°45' W 118°17'0 0.0
2018-Jun-15 06:30N 33°45' W 118°17'0 0.0
2018-Jun-15 06:00N 33°45' W 118°17'0 0.0
2018-Jun-15 05:30N 33°45' W 118°17'0 0.0
2018-Jun-15 04:57N 33°45' W 118°17'0 0.0
2018-Jun-15 04:30N 33°45' W 118°17'0 0.0
2018-Jun-15 04:00N 33°45' W 118°17'0 0.0
2018-Jun-15 03:30N 33°45' W 118°17'0 0.0
2018-Jun-15 03:00N 33°45' W 118°17'0 0.0
2018-Jun-15 02:30N 33°45' W 118°17'0 0.0
2018-Jun-15 01:57N 33°45' W 118°17'0 0.0
2018-Jun-15 01:30N 33°45' W 118°17'0 0.0
2018-Jun-15 01:00N 33°45' W 118°17'0 0.0
2018-Jun-15 00:30N 33°45' W 118°17'0 0.0
2018-Jun-15 00:00N 33°45' W 118°17'0 0.0
2018-Jun-14 23:30N 33°45' W 118°17'0 0.0
2018-Jun-14 23:00N 33°45' W 118°17'0 0.0
2018-Jun-14 22:30N 33°45' W 118°17'0 0.0
2018-Jun-14 22:00N 33°45' W 118°17'0 0.0
2018-Jun-14 21:30N 33°45' W 118°17'0 0.0
2018-Jun-14 21:00N 33°45' W 118°17'0 0.0
2018-Jun-14 20:27N 33°45' W 118°17'0 0.0
2018-Jun-14 20:00N 33°45' W 118°17'0 0.0
2018-Jun-14 19:30N 33°45' W 118°17'0 0.0
2018-Jun-14 19:00N 33°45' W 118°17'0 0.0
2018-Jun-14 18:30N 33°45' W 118°17'0 0.0
2018-Jun-14 18:00N 33°45' W 118°17'0 0.0
2018-Jun-14 17:30N 33°45' W 118°17'0 0.0
2018-Jun-14 17:00N 33°45' W 118°17'0 0.0
2018-Jun-14 16:30N 33°45' W 118°17'0 0.0
2018-Jun-14 16:00N 33°45' W 118°17'0 0.0
2018-Jun-14 15:30N 33°45' W 118°17'0 0.0
2018-Jun-14 15:00N 33°45' W 118°17'0 0.0
2018-Jun-14 14:30N 33°45' W 118°17'0 0.1
2018-Jun-14 14:00N 33°45' W 118°17'0 0.1
2018-Jun-14 13:30N 33°45' W 118°17'0 0.0
2018-Jun-14 13:00N 33°45' W 118°17'0 0.0
2018-Jun-14 12:30N 33°45' W 118°17'0 0.0
2018-Jun-14 12:00N 33°45' W 118°17'0 0.0
2018-Jun-14 11:30N 33°45' W 118°17'0 0.0
2018-Jun-14 11:00N 33°45' W 118°17'0 0.1
2018-Jun-14 10:30N 33°45' W 118°17'0 0.1
2018-Jun-14 10:00N 33°45' W 118°17'0 0.0
2018-Jun-14 09:30N 33°45' W 118°17'0 0.1
2018-Jun-14 09:00N 33°45' W 118°17'0 0.1
2018-Jun-14 08:30N 33°45' W 118°17'0 0.0
2018-Jun-14 07:57N 33°45' W 118°17'0 0.0
2018-Jun-14 07:30N 33°45' W 118°17'0 0.1
2018-Jun-14 07:00N 33°45' W 118°17'0 0.1
2018-Jun-14 06:30N 33°45' W 118°17'0 0.0
2018-Jun-14 06:00N 33°45' W 118°17'0 0.0
2018-Jun-14 05:30N 33°45' W 118°17'0 0.1
2018-Jun-14 05:00N 33°45' W 118°17'0 0.1
2018-Jun-14 04:30N 33°45' W 118°17'0 0.0
2018-Jun-14 04:00N 33°45' W 118°17'0 0.1
2018-Jun-14 03:30N 33°45' W 118°17'0 0.1
2018-Jun-14 03:00N 33°45' W 118°17'0 0.0
2018-Jun-14 02:30N 33°45' W 118°17'0 0.0
2018-Jun-14 02:00N 33°45' W 118°17'0 0.1
2018-Jun-14 01:30N 33°45' W 118°17'0 0.0
2018-Jun-14 01:00N 33°45' W 118°17'0 0.1
2018-Jun-14 00:30N 33°45' W 118°17'0 0.0
2018-Jun-14 00:00N 33°45' W 118°17'0 0.0
2018-Jun-13 23:30N 33°45' W 118°17'0 0.0
2018-Jun-13 23:00N 33°45' W 118°17'0 0.0
2018-Jun-13 22:30N 33°45' W 118°17'0 0.0
2018-Jun-13 22:00N 33°45' W 118°17'0 0.0
2018-Jun-13 21:30N 33°45' W 118°17'0 0.0
2018-Jun-13 21:00N 33°45' W 118°17'0 0.0
2018-Jun-13 20:30N 33°45' W 118°17'0 0.0
2018-Jun-13 19:57N 33°45' W 118°17'0 0.0
2018-Jun-13 19:30N 33°45' W 118°17'0 0.0
2018-Jun-13 19:00N 33°45' W 118°17'0 0.0
2018-Jun-13 18:30N 33°45' W 118°17'0 0.0
2018-Jun-13 18:00N 33°45' W 118°17'0 0.0
2018-Jun-13 17:30N 33°45' W 118°17'0 0.0
2018-Jun-13 17:00N 33°45' W 118°17'0 0.0
2018-Jun-13 16:30N 33°45' W 118°17'0 0.0
2018-Jun-13 16:00N 33°45' W 118°17'0 0.0
2018-Jun-13 15:30N 33°45' W 118°17'0 0.1
2018-Jun-13 15:00N 33°45' W 118°17'0 0.1
2018-Jun-13 14:30N 33°45' W 118°17'0 0.0
2018-Jun-13 14:00N 33°45' W 118°17'0 0.0
2018-Jun-13 13:30N 33°45' W 118°17'0 0.1
2018-Jun-13 13:00N 33°45' W 118°17'0 0.0
2018-Jun-13 12:27N 33°45' W 118°17'0 0.1
2018-Jun-13 12:00N 33°45' W 118°17'0 0.0
2018-Jun-13 11:30N 33°45' W 118°17'0 0.0
2018-Jun-13 11:00N 33°45' W 118°17'0 0.0
2018-Jun-13 10:30N 33°45' W 118°17'0 0.1
2018-Jun-13 10:00N 33°45' W 118°17'0 0.1
2018-Jun-13 09:30N 33°45' W 118°17'0 0.0
2018-Jun-13 09:00N 33°45' W 118°17'0 0.0
2018-Jun-13 08:30N 33°45' W 118°17'0 0.0
2018-Jun-13 08:00N 33°45' W 118°17'0 0.0
2018-Jun-13 07:30N 33°45' W 118°17'0 0.0
2018-Jun-13 07:00N 33°45' W 118°17'0 0.0
2018-Jun-13 06:30N 33°45' W 118°17'0 0.0
2018-Jun-13 06:00N 33°45' W 118°17'0 0.0
2018-Jun-13 05:30N 33°45' W 118°17'0 0.0
2018-Jun-13 05:00N 33°45' W 118°17'0 0.0
2018-Jun-13 04:30N 33°45' W 118°17'0 0.0
2018-Jun-13 04:00N 33°45' W 118°17'0 0.0
2018-Jun-13 03:30N 33°45' W 118°17'0 0.0
2018-Jun-13 03:00N 33°45' W 118°17'0 0.0
2018-Jun-13 02:30N 33°45' W 118°17'0 0.0
2018-Jun-13 02:00N 33°45' W 118°17'0 0.1
2018-Jun-13 01:30N 33°45' W 118°17'0 0.1
2018-Jun-13 01:00N 33°45' W 118°17'0 0.1
2018-Jun-13 00:27N 33°45' W 118°17'0 0.1
2018-Jun-13 00:00N 33°45' W 118°17'0 0.1
2018-Jun-12 23:30N 33°45' W 118°17'0 0.0
2018-Jun-12 23:00N 33°45' W 118°17'0 0.1
2018-Jun-12 22:30N 33°45' W 118°17'0 0.0
2018-Jun-12 22:00N 33°45' W 118°17'0 0.0
2018-Jun-12 21:30N 33°45' W 118°17'0 0.0
2018-Jun-12 21:00N 33°45' W 118°17'0 0.0
2018-Jun-12 20:30N 33°45' W 118°17'0 0.0
2018-Jun-12 19:57N 33°45' W 118°17'0 0.0
2018-Jun-12 19:30N 33°45' W 118°17'0 0.0
2018-Jun-12 19:00N 33°45' W 118°17'0 0.0
2018-Jun-12 18:30N 33°45' W 118°17'0 0.0
2018-Jun-12 18:00N 33°45' W 118°17'0 0.0
2018-Jun-12 17:30N 33°45' W 118°17'0 0.0
2018-Jun-12 17:00N 33°45' W 118°17'0 0.0
2018-Jun-12 16:30N 33°45' W 118°17'0 0.0
2018-Jun-12 16:00N 33°45' W 118°17'0 0.0
2018-Jun-12 15:30N 33°45' W 118°17'0 0.1
2018-Jun-12 15:00N 33°45' W 118°17'0 0.1
2018-Jun-12 14:30N 33°45' W 118°17'0 0.0
2018-Jun-12 14:00N 33°45' W 118°17'0 0.0
2018-Jun-12 13:30N 33°45' W 118°17'0 0.0
2018-Jun-12 13:00N 33°45' W 118°17'0 0.1
2018-Jun-12 12:30N 33°45' W 118°17'1 2.7
2018-Jun-12 12:00N 33°44' W 118°16'0 0.9
2018-Jun-12 11:30N 33°43' W 118°16'3 6.8
2018-Jun-12 11:01N 33°41' W 118°14'4 7.3
2018-Jun-12 10:30N 33°37' W 118°16'4 9.1
2018-Jun-12 10:00N 33°36' W 118°21'3 7.0
2018-Jun-12 09:30N 33°36' W 118°25'611.2
2018-Jun-12 09:00N 33°36' W 118°32'611.5
2018-Jun-12 08:30N 33°36' W 118°39'611.5
2018-Jun-12 08:00N 33°37' W 118°45'611.4
2018-Jun-12 07:30N 33°37' W 118°52'611.5
2018-Jun-12 06:59N 33°38' W 118°59'611.2
2018-Jun-12 06:30N 33°38' W 119°06'611.5
2018-Jun-12 05:58N 33°38' W 119°13'611.6
2018-Jun-12 05:28N 33°38' W 119°20'511.4
2018-Jun-12 04:59N 33°38' W 119°27'511.2
2018-Jun-12 04:30N 33°38' W 119°34'611.6
2018-Jun-12 04:00N 33°38' W 119°40'611.6
2018-Jun-12 03:30N 33°38' W 119°48'612.0
2018-Jun-12 03:00N 33°38' W 119°55'611.4
2018-Jun-12 02:30N 33°38' W 120°01'611.4
2018-Jun-12 02:00N 33°38' W 120°08'611.7
2018-Jun-12 01:30N 33°38' W 120°15'611.4
2018-Jun-12 01:00N 33°38' W 120°22'611.2
2018-Jun-12 00:30N 33°38' W 120°29'611.1
2018-Jun-12 00:00N 33°39' W 120°35'611.6
2018-Jun-11 23:30N 33°39' W 120°43'611.5
2018-Jun-11 23:00N 33°39' W 120°49'611.4
2018-Jun-11 22:30N 33°38' W 120°56'510.9
2018-Jun-11 22:00N 33°38' W 121°03'510.7
2018-Jun-11 21:30N 33°39' W 121°09'918.8
2018-Jun-11 21:00N 33°39' W 121°21'918.8
2018-Jun-11 20:30N 33°39' W 121°32'1018.8
2018-Jun-11 20:00N 33°39' W 121°43'918.7
2018-Jun-11 19:30N 33°39' W 121°54'919.0
2018-Jun-11 19:01N 33°39' W 122°06'1018.8
2018-Jun-11 18:30N 33°39' W 122°17'  

Dump ship's entire track history